createdAt,value
2023-08-16T00:01:43.550Z,5.35
2023-08-16T00:06:45.103Z,3.92
2023-08-16T00:11:46.663Z,4.05
2023-08-16T00:16:48.246Z,5.75
2023-08-16T00:21:49.819Z,5.18
2023-08-16T00:26:51.416Z,3.40
2023-08-16T00:31:52.984Z,4.80
2023-08-16T00:36:54.512Z,5.93
2023-08-16T00:41:56.204Z,5.22
2023-08-16T00:46:57.803Z,3.88
2023-08-16T00:52:01.932Z,4.80
2023-08-16T00:57:04.378Z,5.28
2023-08-16T01:02:06.102Z,5.10
2023-08-16T01:07:08.364Z,3.47
2023-08-16T01:12:23.038Z,5.57
2023-08-16T01:17:26.512Z,6.25
2023-08-16T01:22:39.132Z,5.32
2023-08-16T01:27:42.255Z,5.97
2023-08-16T01:32:44.070Z,4.85
2023-08-16T01:37:45.933Z,5.03
2023-08-16T01:42:50.425Z,4.20
2023-08-16T01:47:53.815Z,3.55
2023-08-16T01:52:56.104Z,5.35
2023-08-16T01:57:58.384Z,5.72
2023-08-16T02:03:00.070Z,5.13
2023-08-16T02:08:01.685Z,4.43
2023-08-16T02:13:03.672Z,2.80
2023-08-16T02:18:07.391Z,5.38
2023-08-16T02:23:09.805Z,3.10
2023-08-16T02:28:11.376Z,4.40
2023-08-16T02:33:13.514Z,4.20
2023-08-16T02:38:15.130Z,3.78
2023-08-16T02:43:17.810Z,3.40
2023-08-16T02:48:19.477Z,3.05
2023-08-16T02:53:21.045Z,3.47
2023-08-16T02:58:22.603Z,3.63
2023-08-16T03:03:24.714Z,3.45
2023-08-16T03:08:26.314Z,3.38
2023-08-16T03:13:27.902Z,3.65
2023-08-16T03:18:29.432Z,3.75
2023-08-16T03:23:31.315Z,4.40
2023-08-16T03:28:32.839Z,3.40
2023-08-16T03:33:34.702Z,2.55
2023-08-16T03:38:36.982Z,3.78
2023-08-16T03:43:39.695Z,3.55
2023-08-16T03:48:41.224Z,3.80
2023-08-16T03:53:42.754Z,4.10
2023-08-16T03:58:44.896Z,4.20
2023-08-16T04:03:47.557Z,2.95
2023-08-16T04:08:49.380Z,2.58
2023-08-16T04:13:50.943Z,2.95
2023-08-16T04:18:54.414Z,2.63
2023-08-16T04:23:57.385Z,2.53
2023-08-16T04:28:59.506Z,3.08
2023-08-16T04:34:01.071Z,3.20
2023-08-16T04:39:02.718Z,3.10
2023-08-16T04:44:04.717Z,3.40
2023-08-16T04:49:07.106Z,2.20
2023-08-16T04:54:08.737Z,3.28
2023-08-16T04:59:10.442Z,3.47
2023-08-16T05:04:12.171Z,3.58
2023-08-16T05:09:13.786Z,3.70
2023-08-16T05:14:15.949Z,2.80
2023-08-16T05:19:17.596Z,2.53
2023-08-16T05:24:19.185Z,3.50
2023-08-16T05:29:20.957Z,3.95
2023-08-16T05:34:23.817Z,3.92
2023-08-16T05:39:25.792Z,3.95
2023-08-16T05:44:27.361Z,4.30
2023-08-16T05:49:30.004Z,3.22
2023-08-16T05:54:31.601Z,4.53
2023-08-16T05:59:33.129Z,3.97
2023-08-16T06:04:35.501Z,3.95
2023-08-16T06:09:37.084Z,4.63
2023-08-16T06:14:39.563Z,4.68
2023-08-16T06:19:41.206Z,4.95
2023-08-16T06:24:42.805Z,4.30
2023-08-16T06:29:44.414Z,4.20
2023-08-16T06:34:45.975Z,5.13
2023-08-16T06:39:47.488Z,5.05
2023-08-16T06:44:49.165Z,4.13
2023-08-16T06:49:50.700Z,4.03
2023-08-16T06:54:52.190Z,4.30
2023-08-16T06:59:53.720Z,4.55
2023-08-16T07:04:55.237Z,4.75
2023-08-16T07:09:56.786Z,4.03
2023-08-16T07:14:58.424Z,4.13
2023-08-16T07:20:00.268Z,3.60
2023-08-16T07:25:03.162Z,4.30
2023-08-16T07:30:08.591Z,3.63
2023-08-16T07:35:10.767Z,4.15
2023-08-16T07:40:12.545Z,2.97
2023-08-16T07:45:14.147Z,3.20
2023-08-16T07:50:15.673Z,3.03
2023-08-16T07:55:17.880Z,3.00
2023-08-16T08:00:20.483Z,3.65
2023-08-16T08:05:23.071Z,3.42
2023-08-16T08:10:24.642Z,3.63
2023-08-16T08:15:26.396Z,4.05
2023-08-16T08:20:28.056Z,3.60
2023-08-16T08:25:31.066Z,4.30
2023-08-16T08:30:32.791Z,4.15
2023-08-16T08:35:34.759Z,4.10
2023-08-16T08:40:36.846Z,4.43
2023-08-16T08:45:40.351Z,4.93
2023-08-16T08:50:43.993Z,5.75
2023-08-16T08:55:48.250Z,3.35
2023-08-16T09:00:50.898Z,5.68
2023-08-16T09:05:54.529Z,4.53
2023-08-16T09:10:56.358Z,4.63
2023-08-16T09:15:57.948Z,4.82
2023-08-16T09:21:00.681Z,4.70
2023-08-16T09:26:02.205Z,4.63
2023-08-16T09:31:08.077Z,4.65
2023-08-16T09:36:09.720Z,4.65
2023-08-16T09:41:16.804Z,3.05
2023-08-16T09:46:22.134Z,3.10
2023-08-16T09:52:13.494Z,4.30
2023-08-16T10:12:58.603Z,2.92
2023-08-16T10:18:43.783Z,4.65
2023-08-16T10:24:57.812Z,4.00
2023-08-16T10:31:13.000Z,4.28
2023-08-16T10:49:41.494Z,3.85
2023-08-16T10:54:43.495Z,3.20
2023-08-16T10:59:46.290Z,3.58
2023-08-16T11:04:47.986Z,3.53
2023-08-16T11:09:49.891Z,3.70
2023-08-16T11:14:52.061Z,6.07
2023-08-16T11:19:57.037Z,4.03
2023-08-16T11:25:01.064Z,4.70
2023-08-16T11:30:02.802Z,4.40
2023-08-16T11:35:09.728Z,3.70
2023-08-16T11:40:11.650Z,4.00
2023-08-16T11:45:18.889Z,3.25
2023-08-16T11:50:26.425Z,3.38
2023-08-16T11:55:31.003Z,3.50
2023-08-16T12:00:34.375Z,4.20
2023-08-16T12:05:37.546Z,3.90
2023-08-16T12:10:40.299Z,3.40
2023-08-16T12:15:42.985Z,4.30
2023-08-16T12:20:50.924Z,4.07
2023-08-16T12:25:52.544Z,4.22
2023-08-16T12:30:54.075Z,3.30
2023-08-16T12:35:55.592Z,3.67
2023-08-16T12:40:57.130Z,3.63
2023-08-16T12:46:00.890Z,4.20
2023-08-16T12:51:04.166Z,4.25
2023-08-16T12:56:07.078Z,4.68
2023-08-16T13:01:18.417Z,4.40
2023-08-16T13:11:36.460Z,4.60
2023-08-16T13:21:53.238Z,3.88
2023-08-16T13:32:03.031Z,3.70
2023-08-16T13:37:25.080Z,3.88
2023-08-16T13:47:32.171Z,3.45
2023-08-16T13:52:33.779Z,3.45
2023-08-16T13:57:35.312Z,3.17
2023-08-16T14:02:37.922Z,3.33
2023-08-16T14:07:43.051Z,3.03
2023-08-16T14:12:44.678Z,3.40
2023-08-16T14:17:46.251Z,4.18
2023-08-16T14:22:47.780Z,3.47
2023-08-16T14:27:59.811Z,3.42
2023-08-16T14:38:03.235Z,4.20
2023-08-16T14:43:04.943Z,3.85
2023-08-16T14:48:06.840Z,3.22
2023-08-16T14:53:08.529Z,3.40
2023-08-16T14:58:10.435Z,3.33
2023-08-16T15:03:12.070Z,3.65
2023-08-16T15:08:16.035Z,3.63
2023-08-16T15:13:17.607Z,4.13
2023-08-16T15:18:19.191Z,3.47
2023-08-16T15:23:24.239Z,3.92
2023-08-16T15:28:25.851Z,3.60
2023-08-16T15:33:27.672Z,3.90
2023-08-16T15:38:44.018Z,4.20
2023-08-16T15:43:45.631Z,4.13
2023-08-16T15:48:47.217Z,4.88
2023-08-16T15:53:48.763Z,4.72
2023-08-16T15:58:50.280Z,4.00
2023-08-16T16:03:52.835Z,3.90
2023-08-16T16:08:54.333Z,4.40
2023-08-16T16:14:04.048Z,4.50
2023-08-16T16:19:05.603Z,4.78
2023-08-16T16:24:07.347Z,5.20
2023-08-16T16:29:10.602Z,3.70
2023-08-16T16:34:12.125Z,4.10
2023-08-16T16:39:13.666Z,4.15
2023-08-16T16:44:15.167Z,4.47
2023-08-16T16:49:19.750Z,4.30
2023-08-16T16:54:21.258Z,4.65
2023-08-16T16:59:22.828Z,5.30
2023-08-16T17:04:24.379Z,4.43
2023-08-16T17:09:25.922Z,5.18
2023-08-16T17:14:27.476Z,5.28
2023-08-16T17:19:29.056Z,4.78
2023-08-16T17:24:30.605Z,3.72
2023-08-16T17:29:32.138Z,5.38
2023-08-16T17:34:33.671Z,4.53
2023-08-16T17:39:35.186Z,5.57
2023-08-16T17:44:36.685Z,4.55
2023-08-16T17:49:38.174Z,4.85
2023-08-16T17:54:39.712Z,3.90
2023-08-16T17:59:41.234Z,3.65
2023-08-16T18:04:43.402Z,3.45
2023-08-16T18:09:45.605Z,3.28
2023-08-16T18:14:48.717Z,3.67
2023-08-16T18:19:50.556Z,4.30
2023-08-16T18:24:52.074Z,3.47
2023-08-16T18:29:53.735Z,3.47
2023-08-16T18:34:55.998Z,3.33
2023-08-16T18:39:57.650Z,5.20
2023-08-16T18:44:59.201Z,4.00
2023-08-16T18:50:00.704Z,3.85
2023-08-16T18:55:02.219Z,4.28
2023-08-16T19:00:03.966Z,4.22
2023-08-16T19:05:05.993Z,5.13
2023-08-16T19:10:08.219Z,4.72
2023-08-16T19:15:10.136Z,4.35
2023-08-16T19:20:11.857Z,3.92
2023-08-16T19:25:13.379Z,5.30
2023-08-16T19:30:15.410Z,6.30
2023-08-16T19:35:17.169Z,4.15
2023-08-16T19:40:18.759Z,5.00
2023-08-16T19:45:20.540Z,4.60
2023-08-16T19:50:24.980Z,4.70
2023-08-16T19:55:26.539Z,4.00
2023-08-16T20:00:28.304Z,4.38
2023-08-16T20:05:30.245Z,5.18
2023-08-16T20:10:33.376Z,4.72
2023-08-16T20:15:34.928Z,5.10
2023-08-16T20:20:36.432Z,4.78
2023-08-16T20:25:37.934Z,7.90
2023-08-16T20:30:39.490Z,7.07
2023-08-16T20:35:41.043Z,6.90
2023-08-16T20:40:43.363Z,6.20
2023-08-16T20:45:44.909Z,4.82
2023-08-16T20:50:46.437Z,6.40
2023-08-16T20:55:48.050Z,7.70
2023-08-16T21:00:49.606Z,7.40
2023-08-16T21:05:51.113Z,5.72
2023-08-16T21:10:52.638Z,5.05
2023-08-16T21:15:54.228Z,7.30
2023-08-16T21:20:55.752Z,6.72
2023-08-16T21:25:57.277Z,7.20
2023-08-16T21:30:58.804Z,6.70
2023-08-16T21:36:00.320Z,6.50
2023-08-16T21:41:01.903Z,6.10
2023-08-16T21:46:03.506Z,5.28
2023-08-16T21:51:05.046Z,6.28
2023-08-16T21:56:07.811Z,5.38
2023-08-16T22:01:09.526Z,6.38
2023-08-16T22:06:11.225Z,6.82
2023-08-16T22:11:12.807Z,4.97
2023-08-16T22:16:14.665Z,6.72
2023-08-16T22:21:17.262Z,7.18
2023-08-16T22:26:18.808Z,6.43
2023-08-16T22:31:20.338Z,6.40
2023-08-16T22:36:22.396Z,6.03
2023-08-16T22:41:23.901Z,6.10
2023-08-16T22:46:25.514Z,6.90
2023-08-16T22:51:27.087Z,7.07
2023-08-16T22:56:28.582Z,6.35
2023-08-16T23:01:31.424Z,6.25
2023-08-16T23:06:35.360Z,7.18
2023-08-16T23:11:37.121Z,6.28
2023-08-16T23:16:38.802Z,6.10
2023-08-16T23:21:40.377Z,7.28
2023-08-16T23:26:41.913Z,6.82
2023-08-16T23:31:43.431Z,6.35
2023-08-16T23:36:45.267Z,6.82
2023-08-16T23:41:46.788Z,8.63
2023-08-16T23:46:48.295Z,6.60
2023-08-16T23:51:49.868Z,6.70
2023-08-16T23:56:51.376Z,6.50
